Bodensee (Kressbronn): 6,7°C  -  Teich der Wetterzentrale Bad Schussenried: 6,1°C |  Schneehöhe Kreuzthal-Steinberg (930 m ü. NN): 8 cm   
01.04.2020Höhe
ü. NN
ZeitTemperatur (°C)Nieder-
schlag
Luft-
feuchte
Luft-
druck
Wind
StationaktuellMinimumMaximumaktuellMaximum
Aldingen654 m03:06-2,4-2,4 (07:35)-0,3 (16:02)0,0 l/m²73%1024,60,0 km/h (0 Bft) SW29,6 km/h (5 Bft) W (14:48)
Allmendingen541 m03:05-4,2-4,2 (07:35)-2,1 (15:10)0,0 l/m²84%1024,44,8 km/h (1 Bft) O-NO35,4 km/h (5 Bft) O (15:35)
Altshausen574 m03:05-2,1-2,4 (02:50)-1,1 (00:16)0,0 l/m²62%1022,26,4 km/h (2 Bft) NO8,0 km/h (2 Bft) N-NO (01:07)
Amstetten-Reutti663 m03:05-3,4-3,4 (05:15)-1,5 (16:55)0,0 l/m²81%1024,36,4 km/h (2 Bft) O48,3 km/h (6 Bft) W (15:55)
Amtzell-Grenis677 m03:05-2,5-2,5 (03:00)-1,4 (00:00)0,0 l/m²59%1023,96,4 km/h (2 Bft) W-SW6,4 km/h (2 Bft) W-SW (00:00)
Aulendorf570 m03:05-1,4-1,4 (02:48)-0,5 (00:00)0,0 l/m²66%1023,08,0 km/h (2 Bft) NO11,3 km/h (2 Bft) NO (02:20)
Bad Krozingen233 m03:050,30,3 (07:30)3,7 (16:05)0,0 l/m²65%1023,83,5 km/h (1 Bft) S-SW38,1 km/h (5 Bft) N (17:05)
Bad Saulgau595 m03:05-3,1-3,1 (06:45)-1,9 (15:00)0,0 l/m²80%1022,90,0 km/h (0 Bft) O-SO25,7 km/h (4 Bft) S (11:35)
Bad Saulgau, Mannsgrab588 m03:07-4,0-4,2 (02:38)-1,7 (00:17)0,0 l/m²83%1025,20,0 km/h (0 Bft) N-NW0,0 km/h (0 Bft) N (00:00)
Bad Saulgau-Lampertsweiler627 m03:00-0,9-0,9 (02:30)0,2 (00:00)0,0 l/m²70%1025,819,3 km/h (3 Bft) N-NW22,5 km/h (4 Bft) N-NW (01:15)
Bad Schussenried572 m03:05-2,6-2,6 (03:00)-1,1 (00:00)0,0 l/m²83%1022,54,8 km/h (1 Bft) NO4,8 km/h (1 Bft) NO (03:05)
Bergatreute615 m01:45-0,7-0,7 (00:45)0,0 (00:00)0,0 l/m²77%1023,512,9 km/h (3 Bft) NO16,1 km/h (3 Bft) O-NO (01:40)
Biberach (Riss), Boehringer533 m03:10-2,5-2,8 (03:00)-1,1 (00:30)0,0 l/m²82%1023,07,9 km/h (2 Bft) N-NW11,9 km/h (3 Bft) N (03:00)
Biberach (Riss), Realschule553 m03:10-2,6-2,6 (03:05)-0,3 (00:00)0,0 l/m²81%1025,08,0 km/h (2 Bft) N-NW9,7 km/h (2 Bft) N-NW (03:00)
Burgrieden523 m03:05-2,1-2,1 (03:00)-0,4 (00:00)0,0 l/m²76%1024,00,0 km/h (0 Bft) O-NO4,8 km/h (1 Bft) O-NO (02:50)
Burgrieden-Hochstetten510 m03:05-3,1-3,1 (06:50)-0,9 (15:40)0,0 l/m²85%1024,44,8 km/h (1 Bft) NW25,7 km/h (4 Bft) NO (12:55)
Ebersbach579 m03:05-0,9-0,9 (03:00)-0,1 (00:00)0,0 l/m²76%1024,49,7 km/h (2 Bft) O-NO16,1 km/h (3 Bft) NO (01:25)
Ebersbach-Boos605 m03:05-2,3-2,3 (03:05)-0,1 (00:00)0,0 l/m²80%1024,16,4 km/h (2 Bft) O-NO22,5 km/h (4 Bft) O (01:00)
Ebersbach-Menzenweiler661 m03:05-1,9-2,0 (03:05)-0,6 (00:00)0,0 l/m²80%1024,116,1 km/h (3 Bft) NO24,1 km/h (4 Bft) O-NO (01:05)
Ehingen535 m01:10-2,5-2,5 (01:10)-1,3 (00:05)0,0 l/m²70%1025,40,0 km/h (0 Bft) N-NO5,0 km/h (1 Bft) N-NO (00:15)
Erlenmoos645 m03:05-2,2-2,2 (02:55)-0,9 (00:00)0,0 l/m²83%1023,911,3 km/h (2 Bft) O-NO12,9 km/h (3 Bft) O-NO (01:35)
Ertingen569 m03:05-2,7-2,7 (02:50)-0,6 (00:00)0,0 l/m²82%1024,09,7 km/h (2 Bft) N-NO12,9 km/h (3 Bft) N-NO (00:10)
Friedrichshafen405 m03:05-0,4-0,4 (06:45)0,9 (13:30)0,0 l/m²72%1023,66,4 km/h (2 Bft) NO27,4 km/h (4 Bft) NO (15:10)
Günzburg443 m03:05-2,9-3,0 (02:54)-1,1 (00:00)0,0 l/m²85%1022,20,0 km/h (0 Bft) NO0,0 km/h (0 Bft) NO (00:00)
Hochdorf-Appendorf537 m03:05-2,7-3,4 (02:50)-1,7 (00:15)0,0 l/m²61%1023,80,0 km/h (0 Bft) N-NO12,9 km/h (3 Bft) N-NW (00:00)
Höchsten802 m03:05-2,5-2,5 (03:00)-1,4 (00:00)0,0 l/m²76%1021,420,9 km/h (4 Bft) N-NO25,7 km/h (4 Bft) NO (02:45)
Horgenzell618 m03:05-1,7-1,7 (03:00)-0,6 (00:05)0,0 l/m²74%1021,517,7 km/h (3 Bft) N-NO19,3 km/h (3 Bft) N-NO (00:50)
Hoßkirch632 m03:05-3,8-3,9 (02:45)-1,0 (00:15)0,0 l/m²83%1022,88,0 km/h (2 Bft) NO14,5 km/h (3 Bft) O-NO (00:20)
Isny, Am Dreifingerbach695 m03:05-2,3-2,9 (02:30)0,1 (01:00)0,0 l/m²77%1022,60,0 km/h (0 Bft) NW14,5 km/h (3 Bft) O-NO (01:05)
Isny, Weidachweg706 m03:050,1-1,3 (01:25)0,3 (00:25)0,0 l/m²58%1025,06,4 km/h (2 Bft) S-SW12,9 km/h (3 Bft) W (00:10)
Kappel-Grafenhausen163 m03:002,21,8 (06:55)3,3 (14:55)0,0 l/m²61%1022,06,4 km/h (2 Bft) N-NO30,6 km/h (5 Bft) N-NO (16:55)
Kißlegg-Staibshof709 m03:05-2,2-2,2 (03:00)-0,9 (00:00)0,0 l/m²80%1023,69,7 km/h (2 Bft) NO14,5 km/h (3 Bft) O (01:50)
Kressbronn398 m03:08-0,1-0,1 (03:00)1,4 (00:00)0,0 l/m²68%1022,19,7 km/h (2 Bft) O-NO22,5 km/h (4 Bft) O-NO (00:54)
Kreuzthal-Steinberg-Alpe930 m03:00-4,3-4,4 (03:00)-2,5 (00:00)0,0 l/m²93%1024,01,8 km/h (1 Bft) SW22,0 km/h (4 Bft) W-NW (00:10)
Kreuzthal-Steinberggipfel1040 m03:00-3,6-4,0 (02:20)-3,1 (00:10)-82%1024,014,0 km/h (3 Bft) O37,1 km/h (5 Bft) O-SO (00:10)
Kristberg im Montafon (AT)1425 m03:05-5,8-5,9 (02:56)-5,3 (00:40)0,0 l/m²66%1026,60,0 km/h (0 Bft) O10,1 km/h (2 Bft) NO (01:47)
Laupheim500 m03:05-2,7-2,7 (02:45)0,0 (00:00)0,0 l/m²80%1023,64,8 km/h (1 Bft) O-SO9,7 km/h (2 Bft) O-SO (00:20)
Leutkirch-Heggelbach670 m03:05-3,1-3,1 (02:50)-2,6 (00:30)0,0 l/m²82%1023,10,0 km/h (0 Bft) N-NO6,4 km/h (2 Bft) O-NO (02:30)
Lindau-Insel420 m03:05-0,1-0,1 (07:25)1,8 (14:55)0,0 l/m²67%1022,60,0 km/h (0 Bft) O-NO29,0 km/h (5 Bft) NO (17:05)
Lindau-Stadt412 m03:05-0,7-0,7 (07:25)1,2 (14:55)0,0 l/m²70%1022,89,7 km/h (2 Bft) N-NO33,8 km/h (5 Bft) N-NO (15:40)
Maierhöfen im Allgäu733 m03:05-2,1-2,1 (02:40)-1,2 (01:35)0,0 l/m²74%1023,28,0 km/h (2 Bft) O25,7 km/h (4 Bft) O-SO (02:05)
Maselheim543 m03:05-2,9-3,7 (06:40)-2,3 (13:20)0,0 l/m²80%1024,23,2 km/h (1 Bft) S-SW24,1 km/h (4 Bft) O-NO (15:20)
Maselheim-Sulmingen548 m03:05-3,3-3,6 (06:40)-2,2 (15:15)0,0 l/m²83%1025,56,4 km/h (2 Bft) NW20,9 km/h (4 Bft) N-NO (12:15)
Mietingen-Baltringen528 m03:05-3,6-3,7 (02:55)-1,3 (00:45)0,0 l/m²83%1025,71,6 km/h (1 Bft) O-NO4,8 km/h (1 Bft) N-NO (01:20)
Mindelheim-Apfeltrach620 m03:06-4,1-4,1 (03:05)-2,7 (00:00)0,0 l/m²85%1025,00,0 km/h (0 Bft) NO0,0 km/h (0 Bft) O-NO (00:00)
Mittelbiberach577 m03:06-2,8-2,8 (03:03)-1,0 (00:16)0,0 l/m²79%1025,21,6 km/h (1 Bft) N11,2 km/h (2 Bft) NO (01:21)
Neresheim552 m03:00-4,8-4,8 (03:00)-2,0 (00:00)0,0 l/m²82%1023,40,0 km/h (0 Bft) O4,0 km/h (1 Bft) NO (01:00)
Neukirch570 m03:05-1,9-1,9 (05:25)-0,9 (14:35)0,0 l/m²78%1023,19,7 km/h (2 Bft) N-NO37,0 km/h (5 Bft) N-NO (11:55)
Ochsenhausen, Birkenstraße613 m03:05-3,9-3,9 (07:10)-2,2 (12:50)0,0 l/m²78%1024,30,0 km/h (0 Bft) SO3,2 km/h (1 Bft) S-SW (07:05)
Ochsenhausen, Unt. Wiesen575 m03:05-4,1-4,2 (02:55)-2,4 (00:00)0,0 l/m²85%1025,50,0 km/h (0 Bft) NO4,8 km/h (1 Bft) NO (00:00)
Opfenbach-Göritz561 m03:06-4,3-4,3 (03:02)-2,8 (00:00)0,0 l/m²76%1021,30,0 km/h (0 Bft) O-NO6,5 km/h (2 Bft) O-NO (00:18)
Ostrach619 m03:05-3,3-3,3 (03:05)-0,6 (00:00)0,0 l/m²83%1022,43,2 km/h (1 Bft) N-NO4,8 km/h (1 Bft) NO (00:00)
Ravensburg, Goethestraße428 m03:050,0-0,1 (03:05)1,3 (00:00)0,0 l/m²73%1022,74,8 km/h (1 Bft) O-NO14,5 km/h (3 Bft) O-NO (02:45)
Ravensburg-Wernsreute511 m03:05-1,6-1,6 (06:15)0,0 (15:50)0,0 l/m²77%1025,612,9 km/h (3 Bft) NO35,4 km/h (5 Bft) N-NO (11:45)
Reichenbach an der Fils343 m03:05-1,1-1,1 (03:05)1,0 (00:00)0,0 l/m²71%1026,73,2 km/h (1 Bft) O11,3 km/h (2 Bft) O (01:20)
Riedlingen530 m03:05-1,8-1,8 (02:40)-1,0 (00:00)0,0 l/m²77%1024,20,0 km/h (0 Bft) O0,0 km/h (0 Bft) N (00:00)
Rißtissen489 m03:05-1,8-1,8 (02:55)-0,2 (00:00)0,0 l/m²82%1021,61,6 km/h (1 Bft) O-NO4,8 km/h (1 Bft) O-NO (00:00)
Rottweil-Hausen681 m03:08-3,3-3,5 (01:52)-1,9 (00:00)0,0 l/m²78%1024,41,4 km/h (1 Bft) NO6,5 km/h (2 Bft) NO (02:14)
Schemmerhofen520 m03:052,72,7 (00:00)2,7 (00:00)0,0 l/m²55%1023,10,0 km/h (0 Bft) NO0,0 km/h (0 Bft) NO (00:00)
Silbertal im Montafon (AT)884 m03:05-3,1-3,1 (02:58)-1,6 (00:01)0,0 l/m²84%1026,30,0 km/h (0 Bft) O-NO0,0 km/h (0 Bft) O-NO (00:00)
Tettnang466 m03:09-0,3-0,3 (02:48)1,0 (00:00)0,0 l/m²69%1022,813,0 km/h (3 Bft) O16,2 km/h (3 Bft) O-SO (01:07)
Tuttlingen648 m03:01-3,3-3,5 (02:41)-2,1 (00:01)0,0 l/m²72%1024,80,0 km/h (0 Bft) W-SW3,1 km/h (1 Bft) NO (00:26)
Tuttlingen, Möhringer-Vorstadt711 m03:05-3,4-3,6 (07:10)-2,4 (16:05)0,0 l/m²78%1023,86,4 km/h (2 Bft) O-NO25,7 km/h (4 Bft) N-NW (12:35)
Ummendorf547 m03:05-1,8-1,8 (03:00)-0,7 (00:10)0,0 l/m²62%1025,212,9 km/h (3 Bft) O-SO16,1 km/h (3 Bft) O (01:05)
Ummendorf-Fischbach558 m03:05-3,8-4,0 (02:55)-1,9 (01:25)0,0 l/m²68%1024,80,0 km/h (0 Bft) S-SW0,0 km/h (0 Bft) O (00:00)
Waldburg707 m03:05-1,8-1,8 (02:50)-0,8 (00:00)0,0 l/m²76%1022,712,9 km/h (3 Bft) N19,3 km/h (3 Bft) N (02:35)
Waltenhofen im Allgäu720 m03:05-5,3-5,3 (03:05)-2,2 (01:05)0,0 l/m²83%1023,80,0 km/h (0 Bft) N-NW17,7 km/h (3 Bft) N-NW (11:50)
Wangen, Südring548 m03:05-1,4-1,4 (02:39)-0,3 (00:00)0,0 l/m²75%1022,77,9 km/h (2 Bft) N-NO13,0 km/h (3 Bft) NO (01:25)
Warthausen-Birkenhard581 m03:08-2,7-2,9 (02:51)-1,2 (00:00)0,0 l/m²80%1024,110,1 km/h (2 Bft) N11,9 km/h (3 Bft) N-NO (02:49)
Winterlingen785 m03:00-4,3-4,6 (02:45)-2,8 (01:00)0,0 l/m²80%1023,32,5 km/h (1 Bft) N3,6 km/h (1 Bft) NO (00:55)

 

Blick auf Bad Schussenried und das Klosterareal 
Blickrichtung Süd-Ost

 
  • Aktuelle Aufnahme Kamera "Schussenbecken"
  • Aktuelle Aufnahme Kamera "Alpenblick"
  •  
  • zurück zur Übersicht
  •  
     

     

     
     webcams
    | webcam bad schussenried
    | webcam kreuzthal-steinberggipfel
    | weitere webcams aus der region
    | storchennest-cam bad waldsee
     
     aktuelles
     
    wetterstationen
    wetterstationen
    - derzeit 83 Stationen
    wetterstationen
    wetterstationen
    - kartographische Darstellung
    niederschlagsdatenbank
    niederschlagsstationen
    - derzeit 112 Stationen
    niederschlagsdatenbank
    niederschlagsstationen
    - kartographische Darstellung
     
      treffpunkt & service
    Pegel Konstanz www.bodensee.net
    zugriffe:
    insgesamt: 46.622.987
    aktueller monat: 176
    heute: 176
    momentan online: 0
     
     
    monatshöchstwert: 653.625
    vorheriger monat: 364.213
    gestern: 13.565
    tageshöchstwert: 57.073
     
    wetterwarte süd
     
    konradstraße 3
    info@wetterwarte-sued.com
    roland roth
     
    88427 bad schussenried